sensor_id;sensor_type;location;lat;lon;timestamp;P1;durP1;ratioP1;P2;durP2;ratioP2
42632;SDS011;28261;53.304;-6.284;2024-03-25T00:01:36;3.60;;;2.08;;
42632;SDS011;28261;53.304;-6.284;2024-03-25T00:03:38;2.97;;;1.98;;
42632;SDS011;28261;53.304;-6.284;2024-03-25T00:05:40;2.78;;;1.55;;
42632;SDS011;28261;53.304;-6.284;2024-03-25T00:07:42;2.33;;;1.67;;
42632;SDS011;28261;53.304;-6.284;2024-03-25T00:09:44;2.95;;;1.52;;
42632;SDS011;28261;53.304;-6.284;2024-03-25T00:11:47;2.75;;;1.75;;
42632;SDS011;28261;53.304;-6.284;2024-03-25T00:13:50;1.33;;;1.23;;
42632;SDS011;28261;53.304;-6.284;2024-03-25T00:15:52;1.30;;;1.20;;
42632;SDS011;28261;53.304;-6.284;2024-03-25T00:17:54;2.60;;;1.30;;
42632;SDS011;28261;53.304;-6.284;2024-03-25T00:19:56;2.13;;;1.42;;
42632;SDS011;28261;53.304;-6.284;2024-03-25T00:21:58;1.10;;;0.95;;
42632;SDS011;28261;53.304;-6.284;2024-03-25T00:24:01;2.70;;;1.35;;
42632;SDS011;28261;53.304;-6.284;2024-03-25T00:26:03;2.22;;;2.08;;
42632;SDS011;28261;53.304;-6.284;2024-03-25T00:28:06;1.30;;;1.10;;
42632;SDS011;28261;53.304;-6.284;2024-03-25T00:30:09;0.93;;;0.90;;
42632;SDS011;28261;53.304;-6.284;2024-03-25T00:32:13;1.42;;;1.33;;
42632;SDS011;28261;53.304;-6.284;2024-03-25T00:34:15;1.13;;;1.00;;
42632;SDS011;28261;53.304;-6.284;2024-03-25T00:36:18;1.40;;;1.05;;
42632;SDS011;28261;53.304;-6.284;2024-03-25T00:38:20;1.13;;;1.02;;
42632;SDS011;28261;53.304;-6.284;2024-03-25T00:40:22;1.23;;;0.90;;
42632;SDS011;28261;53.304;-6.284;2024-03-25T00:42:24;1.42;;;1.08;;
42632;SDS011;28261;53.304;-6.284;2024-03-25T00:44:27;1.10;;;0.93;;
42632;SDS011;28261;53.304;-6.284;2024-03-25T00:46:30;1.70;;;1.42;;
42632;SDS011;28261;53.304;-6.284;2024-03-25T00:48:33;2.17;;;1.42;;
42632;SDS011;28261;53.304;-6.284;2024-03-25T00:50:34;1.45;;;1.35;;
42632;SDS011;28261;53.304;-6.284;2024-03-25T00:52:37;1.40;;;1.15;;
42632;SDS011;28261;53.304;-6.284;2024-03-25T00:54:38;1.48;;;1.00;;
42632;SDS011;28261;53.304;-6.284;2024-03-25T00:56:41;2.97;;;1.35;;
42632;SDS011;28261;53.304;-6.284;2024-03-25T00:58:43;1.58;;;1.10;;
42632;SDS011;28261;53.304;-6.284;2024-03-25T01:00:47;0.73;;;0.70;;
42632;SDS011;28261;53.304;-6.284;2024-03-25T01:02:49;1.08;;;1.02;;
42632;SDS011;28261;53.304;-6.284;2024-03-25T01:04:52;0.80;;;0.80;;
42632;SDS011;28261;53.304;-6.284;2024-03-25T01:06:55;1.08;;;0.98;;
42632;SDS011;28261;53.304;-6.284;2024-03-25T01:08:57;0.98;;;0.70;;
42632;SDS011;28261;53.304;-6.284;2024-03-25T01:10:59;0.90;;;0.77;;
42632;SDS011;28261;53.304;-6.284;2024-03-25T01:13:01;0.63;;;0.63;;
42632;SDS011;28261;53.304;-6.284;2024-03-25T01:15:04;0.73;;;0.73;;
42632;SDS011;28261;53.304;-6.284;2024-03-25T01:17:06;1.00;;;1.00;;
42632;SDS011;28261;53.304;-6.284;2024-03-25T01:19:10;0.73;;;0.60;;
42632;SDS011;28261;53.304;-6.284;2024-03-25T01:21:12;0.55;;;0.55;;
42632;SDS011;28261;53.304;-6.284;2024-03-25T01:23:15;0.65;;;0.65;;
42632;SDS011;28261;53.304;-6.284;2024-03-25T01:25:17;0.98;;;0.98;;
42632;SDS011;28261;53.304;-6.284;2024-03-25T01:27:20;0.75;;;0.75;;
42632;SDS011;28261;53.304;-6.284;2024-03-25T01:29:22;0.60;;;0.60;;
42632;SDS011;28261;53.304;-6.284;2024-03-25T01:31:25;0.90;;;0.70;;
42632;SDS011;28261;53.304;-6.284;2024-03-25T01:33:26;1.20;;;0.80;;
42632;SDS011;28261;53.304;-6.284;2024-03-25T01:35:30;0.68;;;0.65;;
42632;SDS011;28261;53.304;-6.284;2024-03-25T01:37:32;0.52;;;0.52;;
42632;SDS011;28261;53.304;-6.284;2024-03-25T01:39:35;0.80;;;0.80;;
42632;SDS011;28261;53.304;-6.284;2024-03-25T01:41:38;0.93;;;0.80;;
42632;SDS011;28261;53.304;-6.284;2024-03-25T01:43:40;0.60;;;0.60;;
42632;SDS011;28261;53.304;-6.284;2024-03-25T01:45:42;0.80;;;0.80;;
42632;SDS011;28261;53.304;-6.284;2024-03-25T01:47:45;1.00;;;0.75;;
42632;SDS011;28261;53.304;-6.284;2024-03-25T01:49:47;0.80;;;0.80;;
42632;SDS011;28261;53.304;-6.284;2024-03-25T01:51:55;0.68;;;0.68;;
42632;SDS011;28261;53.304;-6.284;2024-03-25T01:53:59;0.60;;;0.60;;
42632;SDS011;28261;53.304;-6.284;2024-03-25T01:56:03;0.60;;;0.60;;
42632;SDS011;28261;53.304;-6.284;2024-03-25T01:58:06;0.55;;;0.55;;
42632;SDS011;28261;53.304;-6.284;2024-03-25T02:00:09;0.70;;;0.70;;
42632;SDS011;28261;53.304;-6.284;2024-03-25T02:02:20;0.88;;;0.88;;
42632;SDS011;28261;53.304;-6.284;2024-03-25T02:04:22;2.42;;;1.58;;
42632;SDS011;28261;53.304;-6.284;2024-03-25T02:06:24;11.27;;;4.47;;
42632;SDS011;28261;53.304;-6.284;2024-03-25T02:10:32;0.80;;;0.80;;
42632;SDS011;28261;53.304;-6.284;2024-03-25T02:12:35;0.57;;;0.57;;
42632;SDS011;28261;53.304;-6.284;2024-03-25T02:14:37;0.60;;;0.60;;
42632;SDS011;28261;53.304;-6.284;2024-03-25T02:16:40;0.65;;;0.65;;
42632;SDS011;28261;53.304;-6.284;2024-03-25T02:18:42;0.93;;;0.93;;
42632;SDS011;28261;53.304;-6.284;2024-03-25T02:20:44;0.80;;;0.80;;
42632;SDS011;28261;53.304;-6.284;2024-03-25T02:22:46;0.63;;;0.63;;
42632;SDS011;28261;53.304;-6.284;2024-03-25T02:24:51;0.80;;;0.80;;
42632;SDS011;28261;53.304;-6.284;2024-03-25T02:26:55;1.17;;;0.77;;
42632;SDS011;28261;53.304;-6.284;2024-03-25T02:28:58;0.68;;;0.68;;
42632;SDS011;28261;53.304;-6.284;2024-03-25T02:31:00;1.10;;;1.00;;
42632;SDS011;28261;53.304;-6.284;2024-03-25T02:33:03;0.80;;;0.80;;
42632;SDS011;28261;53.304;-6.284;2024-03-25T02:35:06;0.75;;;0.75;;
42632;SDS011;28261;53.304;-6.284;2024-03-25T02:37:11;0.73;;;0.73;;
42632;SDS011;28261;53.304;-6.284;2024-03-25T02:39:13;0.63;;;0.63;;
42632;SDS011;28261;53.304;-6.284;2024-03-25T02:41:16;0.85;;;0.85;;
42632;SDS011;28261;53.304;-6.284;2024-03-25T02:43:19;1.65;;;0.95;;
42632;SDS011;28261;53.304;-6.284;2024-03-25T02:45:23;1.00;;;1.00;;
42632;SDS011;28261;53.304;-6.284;2024-03-25T02:47:24;0.80;;;0.80;;
42632;SDS011;28261;53.304;-6.284;2024-03-25T02:49:27;0.57;;;0.57;;
42632;SDS011;28261;53.304;-6.284;2024-03-25T02:51:29;0.20;;;0.20;;
42632;SDS011;28261;53.304;-6.284;2024-03-25T02:53:32;0.60;;;0.60;;
42632;SDS011;28261;53.304;-6.284;2024-03-25T02:55:34;0.30;;;0.30;;
42632;SDS011;28261;53.304;-6.284;2024-03-25T02:57:36;0.70;;;0.70;;
42632;SDS011;28261;53.304;-6.284;2024-03-25T02:59:39;0.52;;;0.52;;
42632;SDS011;28261;53.304;-6.284;2024-03-25T03:01:43;0.65;;;0.60;;
42632;SDS011;28261;53.304;-6.284;2024-03-25T03:03:44;0.60;;;0.60;;
42632;SDS011;28261;53.304;-6.284;2024-03-25T03:05:47;0.77;;;0.77;;
42632;SDS011;28261;53.304;-6.284;2024-03-25T03:07:48;0.50;;;0.50;;
42632;SDS011;28261;53.304;-6.284;2024-03-25T03:09:50;0.70;;;0.70;;
42632;SDS011;28261;53.304;-6.284;2024-03-25T03:11:53;1.10;;;1.10;;
42632;SDS011;28261;53.304;-6.284;2024-03-25T03:13:54;0.60;;;0.60;;
42632;SDS011;28261;53.304;-6.284;2024-03-25T03:15:59;0.70;;;0.70;;
42632;SDS011;28261;53.304;-6.284;2024-03-25T03:18:00;0.60;;;0.60;;
42632;SDS011;28261;53.304;-6.284;2024-03-25T03:20:03;1.38;;;0.63;;
42632;SDS011;28261;53.304;-6.284;2024-03-25T03:22:07;0.47;;;0.47;;
42632;SDS011;28261;53.304;-6.284;2024-03-25T03:24:10;0.60;;;0.60;;
42632;SDS011;28261;53.304;-6.284;2024-03-25T03:26:11;0.82;;;0.82;;
42632;SDS011;28261;53.304;-6.284;2024-03-25T03:28:14;0.55;;;0.10;;
42632;SDS011;28261;53.304;-6.284;2024-03-25T03:30:16;1.27;;;0.60;;
42632;SDS011;28261;53.304;-6.284;2024-03-25T03:32:20;0.50;;;0.50;;
42632;SDS011;28261;53.304;-6.284;2024-03-25T03:34:22;0.20;;;0.20;;
42632;SDS011;28261;53.304;-6.284;2024-03-25T03:36:24;0.50;;;0.50;;
42632;SDS011;28261;53.304;-6.284;2024-03-25T03:38:26;0.60;;;0.60;;
42632;SDS011;28261;53.304;-6.284;2024-03-25T03:40:28;0.32;;;0.28;;
42632;SDS011;28261;53.304;-6.284;2024-03-25T03:42:30;0.50;;;0.50;;
42632;SDS011;28261;53.304;-6.284;2024-03-25T03:44:33;0.60;;;0.60;;
42632;SDS011;28261;53.304;-6.284;2024-03-25T03:46:35;0.55;;;0.55;;
42632;SDS011;28261;53.304;-6.284;2024-03-25T03:48:38;1.08;;;0.70;;
42632;SDS011;28261;53.304;-6.284;2024-03-25T03:50:41;0.90;;;0.77;;
42632;SDS011;28261;53.304;-6.284;2024-03-25T03:52:43;1.15;;;0.82;;
42632;SDS011;28261;53.304;-6.284;2024-03-25T03:54:45;0.25;;;0.20;;
42632;SDS011;28261;53.304;-6.284;2024-03-25T03:56:47;0.63;;;0.55;;
42632;SDS011;28261;53.304;-6.284;2024-03-25T03:58:50;1.10;;;0.70;;
42632;SDS011;28261;53.304;-6.284;2024-03-25T04:00:52;0.65;;;0.65;;
42632;SDS011;28261;53.304;-6.284;2024-03-25T04:02:54;0.60;;;0.60;;
42632;SDS011;28261;53.304;-6.284;2024-03-25T04:04:57;0.38;;;0.38;;
42632;SDS011;28261;53.304;-6.284;2024-03-25T04:07:01;0.40;;;0.30;;
42632;SDS011;28261;53.304;-6.284;2024-03-25T04:09:02;1.55;;;0.63;;
42632;SDS011;28261;53.304;-6.284;2024-03-25T04:11:05;0.70;;;0.70;;
42632;SDS011;28261;53.304;-6.284;2024-03-25T04:13:07;3.35;;;0.88;;
42632;SDS011;28261;53.304;-6.284;2024-03-25T04:15:10;0.50;;;0.50;;
42632;SDS011;28261;53.304;-6.284;2024-03-25T04:17:18;1.58;;;0.40;;
42632;SDS011;28261;53.304;-6.284;2024-03-25T04:19:23;1.08;;;0.50;;
42632;SDS011;28261;53.304;-6.284;2024-03-25T04:21:26;0.73;;;0.60;;
42632;SDS011;28261;53.304;-6.284;2024-03-25T04:23:29;0.75;;;0.57;;
42632;SDS011;28261;53.304;-6.284;2024-03-25T04:25:30;1.17;;;0.73;;
42632;SDS011;28261;53.304;-6.284;2024-03-25T04:27:33;1.40;;;0.60;;
42632;SDS011;28261;53.304;-6.284;2024-03-25T04:29:35;0.80;;;0.68;;
42632;SDS011;28261;53.304;-6.284;2024-03-25T04:31:38;0.60;;;0.60;;
42632;SDS011;28261;53.304;-6.284;2024-03-25T04:33:39;0.50;;;0.50;;
42632;SDS011;28261;53.304;-6.284;2024-03-25T04:35:43;0.47;;;0.47;;
42632;SDS011;28261;53.304;-6.284;2024-03-25T04:37:46;0.60;;;0.60;;
42632;SDS011;28261;53.304;-6.284;2024-03-25T04:39:47;0.50;;;0.50;;
42632;SDS011;28261;53.304;-6.284;2024-03-25T04:41:53;0.85;;;0.85;;
42632;SDS011;28261;53.304;-6.284;2024-03-25T04:43:55;1.25;;;0.70;;
42632;SDS011;28261;53.304;-6.284;2024-03-25T04:46:00;1.00;;;0.80;;
42632;SDS011;28261;53.304;-6.284;2024-03-25T04:48:01;0.60;;;0.60;;
42632;SDS011;28261;53.304;-6.284;2024-03-25T04:50:03;0.60;;;0.60;;
42632;SDS011;28261;53.304;-6.284;2024-03-25T04:52:06;0.60;;;0.60;;
42632;SDS011;28261;53.304;-6.284;2024-03-25T04:54:09;1.55;;;0.30;;
42632;SDS011;28261;53.304;-6.284;2024-03-25T04:56:10;2.30;;;0.75;;
42632;SDS011;28261;53.304;-6.284;2024-03-25T04:58:12;3.85;;;0.73;;
42632;SDS011;28261;53.304;-6.284;2024-03-25T05:00:14;1.63;;;0.77;;
42632;SDS011;28261;53.304;-6.284;2024-03-25T05:02:16;3.38;;;1.30;;
42632;SDS011;28261;53.304;-6.284;2024-03-25T05:04:17;0.68;;;0.68;;
42632;SDS011;28261;53.304;-6.284;2024-03-25T05:06:19;1.83;;;1.02;;
42632;SDS011;28261;53.304;-6.284;2024-03-25T05:08:20;1.75;;;0.80;;
42632;SDS011;28261;53.304;-6.284;2024-03-25T05:10:23;0.70;;;0.60;;
42632;SDS011;28261;53.304;-6.284;2024-03-25T05:12:25;0.55;;;0.43;;
42632;SDS011;28261;53.304;-6.284;2024-03-25T05:14:27;1.75;;;1.17;;
42632;SDS011;28261;53.304;-6.284;2024-03-25T05:16:29;0.70;;;0.70;;
42632;SDS011;28261;53.304;-6.284;2024-03-25T05:18:30;1.45;;;0.68;;
42632;SDS011;28261;53.304;-6.284;2024-03-25T05:20:32;2.08;;;0.80;;
42632;SDS011;28261;53.304;-6.284;2024-03-25T05:22:33;1.85;;;0.85;;
42632;SDS011;28261;53.304;-6.284;2024-03-25T05:24:35;2.08;;;0.80;;
42632;SDS011;28261;53.304;-6.284;2024-03-25T05:26:38;0.80;;;0.80;;
42632;SDS011;28261;53.304;-6.284;2024-03-25T05:28:39;3.15;;;0.85;;
42632;SDS011;28261;53.304;-6.284;2024-03-25T05:30:41;2.63;;;0.85;;
42632;SDS011;28261;53.304;-6.284;2024-03-25T05:32:42;1.63;;;0.80;;
42632;SDS011;28261;53.304;-6.284;2024-03-25T05:34:44;2.58;;;0.80;;
42632;SDS011;28261;53.304;-6.284;2024-03-25T05:36:45;2.28;;;0.73;;
42632;SDS011;28261;53.304;-6.284;2024-03-25T05:38:47;2.55;;;0.80;;
42632;SDS011;28261;53.304;-6.284;2024-03-25T05:40:48;3.70;;;1.10;;
42632;SDS011;28261;53.304;-6.284;2024-03-25T05:42:51;3.28;;;1.08;;
42632;SDS011;28261;53.304;-6.284;2024-03-25T05:44:53;3.22;;;0.60;;
42632;SDS011;28261;53.304;-6.284;2024-03-25T05:46:54;7.82;;;1.23;;
42632;SDS011;28261;53.304;-6.284;2024-03-25T05:48:56;4.30;;;1.05;;
42632;SDS011;28261;53.304;-6.284;2024-03-25T05:51:00;2.67;;;1.05;;
42632;SDS011;28261;53.304;-6.284;2024-03-25T05:53:03;3.42;;;1.23;;
42632;SDS011;28261;53.304;-6.284;2024-03-25T05:55:04;3.97;;;1.17;;
42632;SDS011;28261;53.304;-6.284;2024-03-25T05:57:06;4.32;;;1.25;;
42632;SDS011;28261;53.304;-6.284;2024-03-25T05:59:10;4.10;;;1.10;;
42632;SDS011;28261;53.304;-6.284;2024-03-25T06:01:11;4.88;;;1.42;;
42632;SDS011;28261;53.304;-6.284;2024-03-25T06:03:13;8.07;;;1.27;;
42632;SDS011;28261;53.304;-6.284;2024-03-25T06:05:14;5.72;;;1.25;;
42632;SDS011;28261;53.304;-6.284;2024-03-25T06:07:16;5.45;;;1.60;;
42632;SDS011;28261;53.304;-6.284;2024-03-25T06:09:17;6.10;;;1.42;;
42632;SDS011;28261;53.304;-6.284;2024-03-25T06:11:19;3.47;;;1.40;;
42632;SDS011;28261;53.304;-6.284;2024-03-25T06:13:21;4.22;;;1.00;;
42632;SDS011;28261;53.304;-6.284;2024-03-25T06:15:24;3.03;;;1.02;;
42632;SDS011;28261;53.304;-6.284;2024-03-25T06:17:25;2.35;;;1.10;;
42632;SDS011;28261;53.304;-6.284;2024-03-25T06:19:27;4.25;;;1.20;;
42632;SDS011;28261;53.304;-6.284;2024-03-25T06:21:28;5.10;;;1.40;;
42632;SDS011;28261;53.304;-6.284;2024-03-25T06:23:30;3.20;;;1.40;;
42632;SDS011;28261;53.304;-6.284;2024-03-25T06:25:31;10.02;;;1.45;;
42632;SDS011;28261;53.304;-6.284;2024-03-25T06:27:33;8.65;;;2.33;;
42632;SDS011;28261;53.304;-6.284;2024-03-25T06:29:34;5.32;;;0.95;;
42632;SDS011;28261;53.304;-6.284;2024-03-25T06:31:37;2.70;;;1.05;;
42632;SDS011;28261;53.304;-6.284;2024-03-25T06:33:57;3.80;;;1.20;;
42632;SDS011;28261;53.304;-6.284;2024-03-25T06:36:18;9.07;;;1.55;;
42632;SDS011;28261;53.304;-6.284;2024-03-25T06:38:20;4.70;;;0.98;;
42632;SDS011;28261;53.304;-6.284;2024-03-25T06:40:22;5.35;;;1.45;;
42632;SDS011;28261;53.304;-6.284;2024-03-25T06:42:23;8.15;;;1.42;;
42632;SDS011;28261;53.304;-6.284;2024-03-25T06:44:25;5.10;;;0.98;;
42632;SDS011;28261;53.304;-6.284;2024-03-25T06:46:26;3.80;;;1.52;;
42632;SDS011;28261;53.304;-6.284;2024-03-25T06:48:29;5.45;;;1.17;;
42632;SDS011;28261;53.304;-6.284;2024-03-25T06:50:31;4.43;;;1.92;;
42632;SDS011;28261;53.304;-6.284;2024-03-25T06:52:33;6.90;;;1.00;;
42632;SDS011;28261;53.304;-6.284;2024-03-25T06:54:34;6.57;;;1.38;;
42632;SDS011;28261;53.304;-6.284;2024-03-25T06:56:36;5.70;;;1.45;;
42632;SDS011;28261;53.304;-6.284;2024-03-25T06:58:37;4.22;;;2.28;;
42632;SDS011;28261;53.304;-6.284;2024-03-25T07:00:39;4.07;;;0.98;;
42632;SDS011;28261;53.304;-6.284;2024-03-25T07:02:41;7.18;;;1.20;;
42632;SDS011;28261;53.304;-6.284;2024-03-25T07:04:44;7.47;;;1.98;;
42632;SDS011;28261;53.304;-6.284;2024-03-25T07:06:45;6.72;;;1.50;;
42632;SDS011;28261;53.304;-6.284;2024-03-25T07:08:47;4.65;;;1.05;;
42632;SDS011;28261;53.304;-6.284;2024-03-25T07:10:48;3.20;;;1.20;;
42632;SDS011;28261;53.304;-6.284;2024-03-25T07:12:50;4.47;;;1.25;;
42632;SDS011;28261;53.304;-6.284;2024-03-25T07:14:51;3.22;;;1.02;;
42632;SDS011;28261;53.304;-6.284;2024-03-25T07:16:53;5.50;;;1.13;;
42632;SDS011;28261;53.304;-6.284;2024-03-25T07:18:54;3.00;;;1.17;;
42632;SDS011;28261;53.304;-6.284;2024-03-25T07:20:57;8.05;;;1.08;;
42632;SDS011;28261;53.304;-6.284;2024-03-25T07:22:59;2.90;;;1.05;;
42632;SDS011;28261;53.304;-6.284;2024-03-25T07:25:00;5.43;;;1.20;;
42632;SDS011;28261;53.304;-6.284;2024-03-25T07:27:02;11.25;;;4.53;;
42632;SDS011;28261;53.304;-6.284;2024-03-25T07:29:04;4.03;;;1.35;;
42632;SDS011;28261;53.304;-6.284;2024-03-25T07:31:06;7.78;;;2.78;;
42632;SDS011;28261;53.304;-6.284;2024-03-25T07:33:08;3.75;;;1.33;;
42632;SDS011;28261;53.304;-6.284;2024-03-25T07:35:09;3.33;;;1.13;;
42632;SDS011;28261;53.304;-6.284;2024-03-25T07:37:12;4.18;;;1.25;;
42632;SDS011;28261;53.304;-6.284;2024-03-25T07:39:14;7.82;;;1.70;;
42632;SDS011;28261;53.304;-6.284;2024-03-25T07:41:16;10.05;;;2.05;;
42632;SDS011;28261;53.304;-6.284;2024-03-25T07:43:17;7.20;;;1.55;;
42632;SDS011;28261;53.304;-6.284;2024-03-25T07:45:19;6.60;;;1.50;;
42632;SDS011;28261;53.304;-6.284;2024-03-25T07:47:21;6.40;;;1.38;;
42632;SDS011;28261;53.304;-6.284;2024-03-25T07:49:22;4.95;;;1.15;;
42632;SDS011;28261;53.304;-6.284;2024-03-25T07:51:24;3.90;;;0.60;;
42632;SDS011;28261;53.304;-6.284;2024-03-25T07:53:27;2.55;;;1.20;;
42632;SDS011;28261;53.304;-6.284;2024-03-25T07:55:29;2.97;;;1.50;;
42632;SDS011;28261;53.304;-6.284;2024-03-25T07:57:31;6.07;;;1.30;;
42632;SDS011;28261;53.304;-6.284;2024-03-25T07:59:32;5.22;;;1.33;;
42632;SDS011;28261;53.304;-6.284;2024-03-25T08:01:34;6.28;;;1.50;;
42632;SDS011;28261;53.304;-6.284;2024-03-25T08:03:36;3.50;;;1.40;;
42632;SDS011;28261;53.304;-6.284;2024-03-25T08:05:37;3.30;;;1.20;;
42632;SDS011;28261;53.304;-6.284;2024-03-25T08:07:39;3.30;;;1.48;;
42632;SDS011;28261;53.304;-6.284;2024-03-25T08:09:42;6.78;;;1.40;;
42632;SDS011;28261;53.304;-6.284;2024-03-25T08:11:43;3.85;;;1.27;;
42632;SDS011;28261;53.304;-6.284;2024-03-25T08:13:45;2.72;;;1.13;;
42632;SDS011;28261;53.304;-6.284;2024-03-25T08:15:46;5.22;;;1.30;;
42632;SDS011;28261;53.304;-6.284;2024-03-25T08:17:48;5.40;;;1.52;;
42632;SDS011;28261;53.304;-6.284;2024-03-25T08:19:49;5.72;;;1.67;;
42632;SDS011;28261;53.304;-6.284;2024-03-25T08:21:51;4.15;;;1.60;;
42632;SDS011;28261;53.304;-6.284;2024-03-25T08:23:52;5.50;;;1.40;;
42632;SDS011;28261;53.304;-6.284;2024-03-25T08:25:55;3.95;;;1.63;;
42632;SDS011;28261;53.304;-6.284;2024-03-25T08:27:57;7.97;;;1.33;;
42632;SDS011;28261;53.304;-6.284;2024-03-25T08:29:59;7.18;;;1.90;;
42632;SDS011;28261;53.304;-6.284;2024-03-25T08:32:01;4.30;;;1.98;;
42632;SDS011;28261;53.304;-6.284;2024-03-25T08:34:02;10.85;;;2.35;;
42632;SDS011;28261;53.304;-6.284;2024-03-25T08:36:05;4.90;;;1.60;;
42632;SDS011;28261;53.304;-6.284;2024-03-25T08:38:07;7.35;;;1.70;;
42632;SDS011;28261;53.304;-6.284;2024-03-25T08:40:09;5.05;;;1.75;;
42632;SDS011;28261;53.304;-6.284;2024-03-25T08:42:12;5.30;;;1.33;;
42632;SDS011;28261;53.304;-6.284;2024-03-25T08:44:14;6.80;;;1.90;;
42632;SDS011;28261;53.304;-6.284;2024-03-25T08:46:17;9.60;;;2.33;;
42632;SDS011;28261;53.304;-6.284;2024-03-25T08:48:19;10.05;;;1.63;;
42632;SDS011;28261;53.304;-6.284;2024-03-25T08:50:21;10.63;;;1.50;;
42632;SDS011;28261;53.304;-6.284;2024-03-25T08:52:22;7.88;;;1.48;;
42632;SDS011;28261;53.304;-6.284;2024-03-25T08:54:24;6.05;;;1.58;;
42632;SDS011;28261;53.304;-6.284;2024-03-25T08:56:25;5.88;;;2.17;;
42632;SDS011;28261;53.304;-6.284;2024-03-25T08:58:28;7.10;;;0.93;;
42632;SDS011;28261;53.304;-6.284;2024-03-25T09:00:30;3.72;;;1.17;;
42632;SDS011;28261;53.304;-6.284;2024-03-25T09:02:32;3.80;;;0.73;;
42632;SDS011;28261;53.304;-6.284;2024-03-25T09:04:33;2.35;;;1.38;;
42632;SDS011;28261;53.304;-6.284;2024-03-25T09:06:35;8.73;;;2.03;;
42632;SDS011;28261;53.304;-6.284;2024-03-25T09:08:37;4.15;;;1.50;;
42632;SDS011;28261;53.304;-6.284;2024-03-25T09:10:53;7.43;;;1.60;;
42632;SDS011;28261;53.304;-6.284;2024-03-25T09:13:04;5.70;;;2.03;;
42632;SDS011;28261;53.304;-6.284;2024-03-25T09:15:07;5.78;;;1.48;;
42632;SDS011;28261;53.304;-6.284;2024-03-25T09:17:09;5.57;;;0.93;;
42632;SDS011;28261;53.304;-6.284;2024-03-25T09:19:11;5.28;;;1.42;;
42632;SDS011;28261;53.304;-6.284;2024-03-25T09:21:12;7.50;;;1.92;;
42632;SDS011;28261;53.304;-6.284;2024-03-25T09:23:14;8.18;;;2.08;;
42632;SDS011;28261;53.304;-6.284;2024-03-25T09:25:16;7.32;;;2.38;;
42632;SDS011;28261;53.304;-6.284;2024-03-25T09:27:18;11.10;;;1.70;;
42632;SDS011;28261;53.304;-6.284;2024-03-25T09:29:19;5.07;;;1.70;;
42632;SDS011;28261;53.304;-6.284;2024-03-25T09:31:22;13.05;;;1.73;;
42632;SDS011;28261;53.304;-6.284;2024-03-25T09:33:27;5.50;;;1.60;;
42632;SDS011;28261;53.304;-6.284;2024-03-25T09:35:28;9.27;;;1.70;;
42632;SDS011;28261;53.304;-6.284;2024-03-25T09:37:30;9.63;;;1.55;;
42632;SDS011;28261;53.304;-6.284;2024-03-25T09:39:31;13.43;;;1.65;;
42632;SDS011;28261;53.304;-6.284;2024-03-25T09:41:33;9.10;;;1.83;;
42632;SDS011;28261;53.304;-6.284;2024-03-25T09:43:40;10.20;;;1.83;;
42632;SDS011;28261;53.304;-6.284;2024-03-25T09:45:44;12.32;;;2.22;;
42632;SDS011;28261;53.304;-6.284;2024-03-25T09:47:51;11.75;;;1.92;;
42632;SDS011;28261;53.304;-6.284;2024-03-25T09:49:53;9.25;;;2.00;;
42632;SDS011;28261;53.304;-6.284;2024-03-25T09:51:55;12.95;;;1.98;;
42632;SDS011;28261;53.304;-6.284;2024-03-25T09:53:57;9.60;;;2.53;;
42632;SDS011;28261;53.304;-6.284;2024-03-25T09:55:59;10.75;;;2.08;;
42632;SDS011;28261;53.304;-6.284;2024-03-25T09:58:01;10.60;;;1.67;;
42632;SDS011;28261;53.304;-6.284;2024-03-25T10:00:04;16.23;;;1.98;;
42632;SDS011;28261;53.304;-6.284;2024-03-25T10:02:13;5.00;;;1.95;;
42632;SDS011;28261;53.304;-6.284;2024-03-25T10:04:18;14.57;;;1.88;;
42632;SDS011;28261;53.304;-6.284;2024-03-25T10:06:20;6.50;;;1.70;;
42632;SDS011;28261;53.304;-6.284;2024-03-25T10:08:22;10.82;;;2.20;;
42632;SDS011;28261;53.304;-6.284;2024-03-25T10:10:23;11.13;;;2.65;;
42632;SDS011;28261;53.304;-6.284;2024-03-25T10:12:25;7.97;;;1.77;;
42632;SDS011;28261;53.304;-6.284;2024-03-25T10:14:27;8.43;;;2.25;;
42632;SDS011;28261;53.304;-6.284;2024-03-25T10:16:28;16.17;;;6.32;;
42632;SDS011;28261;53.304;-6.284;2024-03-25T10:18:31;6.45;;;1.40;;
42632;SDS011;28261;53.304;-6.284;2024-03-25T10:20:34;4.88;;;1.75;;
42632;SDS011;28261;53.304;-6.284;2024-03-25T10:22:40;1.77;;;1.40;;
42632;SDS011;28261;53.304;-6.284;2024-03-25T10:24:42;2.30;;;1.00;;
42632;SDS011;28261;53.304;-6.284;2024-03-25T10:26:48;5.30;;;2.17;;
42632;SDS011;28261;53.304;-6.284;2024-03-25T10:31:02;1.75;;;0.70;;
42632;SDS011;28261;53.304;-6.284;2024-03-25T10:33:05;4.00;;;0.95;;
42632;SDS011;28261;53.304;-6.284;2024-03-25T10:35:07;2.88;;;1.00;;
42632;SDS011;28261;53.304;-6.284;2024-03-25T10:37:11;2.30;;;1.00;;
42632;SDS011;28261;53.304;-6.284;2024-03-25T10:39:14;5.25;;;0.85;;
42632;SDS011;28261;53.304;-6.284;2024-03-25T10:41:18;2.67;;;0.80;;
42632;SDS011;28261;53.304;-6.284;2024-03-25T10:43:20;0.77;;;0.77;;
42632;SDS011;28261;53.304;-6.284;2024-03-25T10:45:25;0.75;;;0.70;;
42632;SDS011;28261;53.304;-6.284;2024-03-25T10:47:28;0.63;;;0.60;;
42632;SDS011;28261;53.304;-6.284;2024-03-25T10:49:33;1.13;;;0.70;;
42632;SDS011;28261;53.304;-6.284;2024-03-25T10:51:38;3.22;;;0.73;;
42632;SDS011;28261;53.304;-6.284;2024-03-25T10:53:43;0.65;;;0.65;;
42632;SDS011;28261;53.304;-6.284;2024-03-25T10:55:45;2.10;;;0.70;;
42632;SDS011;28261;53.304;-6.284;2024-03-25T10:57:48;0.70;;;0.70;;
42632;SDS011;28261;53.304;-6.284;2024-03-25T10:59:51;0.90;;;0.63;;
42632;SDS011;28261;53.304;-6.284;2024-03-25T11:01:56;1.40;;;0.85;;
42632;SDS011;28261;53.304;-6.284;2024-03-25T11:03:57;2.38;;;0.70;;
42632;SDS011;28261;53.304;-6.284;2024-03-25T11:06:00;0.60;;;0.60;;
42632;SDS011;28261;53.304;-6.284;2024-03-25T11:08:09;0.90;;;0.60;;
42632;SDS011;28261;53.304;-6.284;2024-03-25T11:10:13;2.03;;;1.33;;
42632;SDS011;28261;53.304;-6.284;2024-03-25T11:12:16;1.98;;;0.80;;
42632;SDS011;28261;53.304;-6.284;2024-03-25T11:14:18;0.80;;;0.68;;
42632;SDS011;28261;53.304;-6.284;2024-03-25T11:16:26;2.85;;;0.82;;
42632;SDS011;28261;53.304;-6.284;2024-03-25T11:18:29;1.13;;;1.05;;
42632;SDS011;28261;53.304;-6.284;2024-03-25T11:20:33;1.00;;;0.63;;
42632;SDS011;28261;53.304;-6.284;2024-03-25T11:22:35;3.65;;;0.73;;
42632;SDS011;28261;53.304;-6.284;2024-03-25T11:24:49;1.55;;;0.60;;
42632;SDS011;28261;53.304;-6.284;2024-03-25T11:26:52;1.25;;;0.70;;
42632;SDS011;28261;53.304;-6.284;2024-03-25T11:28:55;3.17;;;0.98;;
42632;SDS011;28261;53.304;-6.284;2024-03-25T11:30:57;4.70;;;0.88;;
42632;SDS011;28261;53.304;-6.284;2024-03-25T11:33:01;3.70;;;0.75;;
42632;SDS011;28261;53.304;-6.284;2024-03-25T11:35:06;1.38;;;0.60;;
42632;SDS011;28261;53.304;-6.284;2024-03-25T11:40:03;1.73;;;0.85;;
42632;SDS011;28261;53.304;-6.284;2024-03-25T11:42:07;1.08;;;0.68;;
42632;SDS011;28261;53.304;-6.284;2024-03-25T11:44:10;1.42;;;0.30;;
42632;SDS011;28261;53.304;-6.284;2024-03-25T11:46:16;2.65;;;1.08;;
42632;SDS011;28261;53.304;-6.284;2024-03-25T11:48:19;1.48;;;0.73;;
42632;SDS011;28261;53.304;-6.284;2024-03-25T11:50:24;2.13;;;0.80;;
42632;SDS011;28261;53.304;-6.284;2024-03-25T11:52:31;2.65;;;0.80;;
42632;SDS011;28261;53.304;-6.284;2024-03-25T11:54:33;1.60;;;1.08;;
42632;SDS011;28261;53.304;-6.284;2024-03-25T11:56:35;3.47;;;1.23;;
42632;SDS011;28261;53.304;-6.284;2024-03-25T11:58:39;2.10;;;0.80;;
42632;SDS011;28261;53.304;-6.284;2024-03-25T12:00:44;3.42;;;0.98;;
42632;SDS011;28261;53.304;-6.284;2024-03-25T12:02:47;2.25;;;1.20;;
42632;SDS011;28261;53.304;-6.284;2024-03-25T12:04:51;6.22;;;1.15;;
42632;SDS011;28261;53.304;-6.284;2024-03-25T12:06:54;6.22;;;1.30;;
42632;SDS011;28261;53.304;-6.284;2024-03-25T12:08:55;5.00;;;1.42;;
42632;SDS011;28261;53.304;-6.284;2024-03-25T12:11:16;7.30;;;1.85;;
42632;SDS011;28261;53.304;-6.284;2024-03-25T12:13:19;6.15;;;1.35;;
42632;SDS011;28261;53.304;-6.284;2024-03-25T12:15:25;4.93;;;1.40;;